Time;durP1;ratioP1;P1;durP2;ratioP2;P2;SDS_P1;SDS_P2;PMS_P1;PMS_P2;Temp;Humidity;BMP_temperature;BMP_pressure;BME280_temperature;BME280_humidity;BME280_pressure;Samples;Min_cycle;Max_cycle;Signal;HPM_P1;HPM_P2
2023/12/26 00:01:26;;;;;;;;;;;;;;;8.05;63.58;99686.03;5112315;28;19912;-81
2023/12/26 00:03:52;;;;;;;;;;;;;;;8.07;63.33;99689.31;5094134;28;19941;-81
2023/12/26 00:06:20;;;;;;;;;;;;;;;8.05;63.29;99691.28;5093751;28;20440;-81
2023/12/26 00:08:46;;;;;;;;;;;;;;;8.05;63.12;99685.19;5112556;28;19911;-82
2023/12/26 00:11:12;;;;;;;;;;;;;;;8.01;63.34;99686.50;5094240;28;19919;-81
2023/12/26 00:13:37;;;;;;;;;;;;;;;7.94;63.73;99689.75;5112362;28;19912;-82
2023/12/26 00:16:02;;;;;;;;;;;;;;;7.92;63.41;99690.88;5112452;28;20396;-82
2023/12/26 00:18:28;;;;;;;;;;;;;;;7.91;63.46;99679.56;5112546;28;20003;-83
2023/12/26 00:20:53;;;;;;;;;;;;;;;7.90;63.07;99691.06;5094227;28;19947;-82
2023/12/26 00:23:19;;;;;;;;;;;;;;;7.89;63.28;99686.78;5112313;28;19912;-82
2023/12/26 00:25:45;;;;;;;;;;;;;;;7.88;63.63;99689.56;5112215;28;20316;-82
2023/12/26 00:28:12;;;;;;;;;;;;;;;7.86;63.61;99700.22;5112203;28;19915;-83
2023/12/26 00:30:37;;;;;;;;;;;;;;;7.84;63.21;99694.31;5093915;28;20393;-81
2023/12/26 00:33:02;;;;;;;;;;;;;;;7.83;63.45;99692.66;5112212;28;19918;-82
2023/12/26 00:35:28;;;;;;;;;;;;;;;7.81;63.95;99702.50;5112399;28;19918;-81
2023/12/26 00:37:53;;;;;;;;;;;;;;;7.81;63.65;99699.06;5112073;28;19987;-81
2023/12/26 00:40:18;;;;;;;;;;;;;;;7.78;63.77;99702.81;5111990;28;19912;-83
2023/12/26 00:42:44;;;;;;;;;;;;;;;7.77;63.65;99701.16;5112096;28;19934;-83
2023/12/26 00:45:09;;;;;;;;;;;;;;;7.75;63.98;99707.56;5093518;28;19915;-82
2023/12/26 00:47:35;;;;;;;;;;;;;;;7.74;63.42;99701.47;5093418;28;20002;-81
2023/12/26 00:50:00;;;;;;;;;;;;;;;7.74;63.40;99698.84;5093878;28;19922;-83
2023/12/26 00:52:26;;;;;;;;;;;;;;;7.73;63.55;99707.72;5093921;28;19912;-83
2023/12/26 00:54:51;;;;;;;;;;;;;;;7.71;63.97;99706.22;5112461;28;19912;-82
2023/12/26 00:57:16;;;;;;;;;;;;;;;7.70;63.89;99712.47;5112207;28;19959;-82
2023/12/26 00:59:42;;;;;;;;;;;;;;;7.70;63.54;99715.91;5111909;28;19951;-82
2023/12/26 01:02:07;;;;;;;;;;;;;;;7.68;63.74;99712.63;5112048;28;19915;-82
2023/12/26 01:04:32;;;;;;;;;;;;;;;7.67;63.77;99707.50;5111906;28;19923;-81
2023/12/26 01:06:57;;;;;;;;;;;;;;;7.68;63.60;99717.03;5093392;28;20006;-82
2023/12/26 01:09:23;;;;;;;;;;;;;;;7.67;63.77;99712.78;5111862;28;20060;-82
2023/12/26 01:11:48;;;;;;;;;;;;;;;7.65;63.52;99711.13;5111919;28;19918;-82
2023/12/26 01:14:13;;;;;;;;;;;;;;;7.59;63.50;99717.00;5113597;28;19911;-81
2023/12/26 01:16:39;;;;;;;;;;;;;;;7.56;63.50;99706.78;5115558;28;19918;-82
2023/12/26 01:19:04;;;;;;;;;;;;;;;7.56;64.00;99705.97;5115716;28;20285;-83
2023/12/26 01:21:30;;;;;;;;;;;;;;;7.54;64.24;99706.13;5115373;28;20380;-83
2023/12/26 01:23:55;;;;;;;;;;;;;;;7.56;63.54;99711.22;5115424;28;19965;-82
2023/12/26 01:26:23;;;;;;;;;;;;;;;7.53;63.84;99703.66;5115230;28;20402;-83
2023/12/26 01:28:48;;;;;;;;;;;;;;;7.52;63.87;99709.88;5115119;28;19918;-83
2023/12/26 01:31:13;;;;;;;;;;;;;;;7.48;64.28;99698.88;5115145;28;19912;-82
2023/12/26 01:33:38;;;;;;;;;;;;;;;7.48;64.25;99704.13;5115198;28;20402;-81
2023/12/26 01:36:04;;;;;;;;;;;;;;;7.49;64.14;99704.94;5115329;28;19961;-81
2023/12/26 01:38:30;;;;;;;;;;;;;;;7.49;64.25;99703.13;5096790;28;20402;-84
2023/12/26 01:40:55;;;;;;;;;;;;;;;7.48;63.90;99698.88;5115340;28;19934;-81
2023/12/26 01:43:20;;;;;;;;;;;;;;;7.50;64.63;99706.59;5115060;28;20328;-83
2023/12/26 01:45:46;;;;;;;;;;;;;;;7.48;64.08;99698.88;5096554;28;20361;-84
2023/12/26 01:48:11;;;;;;;;;;;;;;;7.47;63.99;99696.38;5115033;28;20007;-84
2023/12/26 01:50:37;;;;;;;;;;;;;;;7.48;64.02;99693.59;5114974;28;19919;-82
2023/12/26 01:53:02;;;;;;;;;;;;;;;7.45;63.99;99698.34;5117702;28;19985;-81
2023/12/26 01:55:28;;;;;;;;;;;;;;;7.43;63.84;99698.50;5121638;28;19918;-83
2023/12/26 01:57:56;;;;;;;;;;;;;;;7.42;63.78;99693.38;5116548;28;20449;-81
2023/12/26 02:00:21;;;;;;;;;;;;;;;7.42;63.77;99696.81;5114591;28;19918;-83
2023/12/26 02:02:49;;;;;;;;;;;;;;;7.42;64.06;99694.19;5114658;28;19912;-81
2023/12/26 02:05:14;;;;;;;;;;;;;;;7.39;63.93;99691.06;5095981;28;19911;-81
2023/12/26 02:07:40;;;;;;;;;;;;;;;7.38;63.60;99697.28;5096128;28;19919;-83
2023/12/26 02:10:06;;;;;;;;;;;;;;;7.38;63.51;99697.28;5096346;28;19915;-80
2023/12/26 02:12:31;;;;;;;;;;;;;;;7.38;63.37;99703.38;5096195;28;19911;-83
2023/12/26 02:14:57;;;;;;;;;;;;;;;7.40;63.65;99701.41;5096172;28;19961;-81
2023/12/26 02:17:24;;;;;;;;;;;;;;;7.32;63.61;99702.16;5095929;28;19919;-81
2023/12/26 02:19:49;;;;;;;;;;;;;;;7.27;63.35;99701.81;5114584;28;19915;-83
2023/12/26 02:22:14;;;;;;;;;;;;;;;7.24;63.39;99701.28;5114497;28;19912;-81
2023/12/26 02:24:43;;;;;;;;;;;;;;;7.22;63.27;99703.25;5095740;28;20388;-81
2023/12/26 02:27:15;;;;;;;;;;;;;;;7.18;63.62;99704.53;5114138;28;19916;-81
2023/12/26 02:29:41;;;;;;;;;;;;;;;7.17;64.01;99714.22;5114403;28;19911;-83
2023/12/26 02:32:08;;;;;;;;;;;;;;;7.17;63.75;99716.00;5095820;28;20331;-83
2023/12/26 02:34:33;;;;;;;;;;;;;;;7.16;63.50;99722.22;5113976;28;19912;-82
2023/12/26 02:36:59;;;;;;;;;;;;;;;7.14;63.54;99724.19;5114093;28;20308;-82
2023/12/26 02:39:24;;;;;;;;;;;;;;;7.12;64.12;99721.72;5114027;28;20354;-81
2023/12/26 02:41:49;;;;;;;;;;;;;;;7.14;63.37;99729.44;5095593;28;19918;-81
2023/12/26 02:44:14;;;;;;;;;;;;;;;7.13;63.40;99738.28;5113821;28;20002;-82
2023/12/26 02:46:40;;;;;;;;;;;;;;;7.12;63.63;99739.25;5095514;28;19923;-83
2023/12/26 02:49:05;;;;;;;;;;;;;;;7.11;63.58;99741.06;5113622;28;20452;-81
2023/12/26 02:51:30;;;;;;;;;;;;;;;7.07;63.24;99731.03;5113627;28;19915;-82
2023/12/26 02:53:56;;;;;;;;;;;;;;;7.04;63.45;99729.53;5113608;28;20422;-82
2023/12/26 02:56:21;;;;;;;;;;;;;;;7.04;63.86;99734.78;5095077;28;19908;-83
2023/12/26 02:58:46;;;;;;;;;;;;;;;7.05;63.56;99728.53;5113513;28;19912;-81
2023/12/26 03:01:11;;;;;;;;;;;;;;;7.07;63.29;99734.47;5113249;28;19915;-83
2023/12/26 03:03:37;;;;;;;;;;;;;;;7.03;63.35;99729.66;5113655;28;19911;-83
2023/12/26 03:06:02;;;;;;;;;;;;;;;6.97;63.53;99728.47;5113126;28;19920;-83
2023/12/26 03:08:27;;;;;;;;;;;;;;;6.96;63.82;99739.94;5095135;28;20011;-82
2023/12/26 03:10:53;;;;;;;;;;;;;;;6.93;63.89;99735.81;5113274;28;19918;-81
2023/12/26 03:13:18;;;;;;;;;;;;;;;6.88;64.18;99730.19;5094979;28;19911;-83
2023/12/26 03:15:43;;;;;;;;;;;;;;;6.89;63.46;99733.66;5113046;28;20003;-82
2023/12/26 03:18:09;;;;;;;;;;;;;;;6.90;63.96;99728.25;5094912;28;20411;-81
2023/12/26 03:20:34;;;;;;;;;;;;;;;6.91;64.25;99735.16;5113239;28;20304;-81
2023/12/26 03:22:59;;;;;;;;;;;;;;;6.91;64.00;99744.81;5113074;28;19951;-84
2023/12/26 03:25:25;;;;;;;;;;;;;;;6.83;64.03;99736.88;5113009;28;20347;-84
2023/12/26 03:27:50;;;;;;;;;;;;;;;6.80;63.89;99745.03;5112935;28;19966;-83
2023/12/26 03:30:15;;;;;;;;;;;;;;;6.80;64.24;99735.38;5113092;28;20453;-82
2023/12/26 03:32:40;;;;;;;;;;;;;;;6.82;63.68;99741.28;5113031;28;19912;-82
2023/12/26 03:35:06;;;;;;;;;;;;;;;6.79;63.75;99744.22;5113025;28;19934;-81
2023/12/26 03:37:31;;;;;;;;;;;;;;;6.76;63.87;99741.88;5094063;28;19956;-81
2023/12/26 03:39:56;;;;;;;;;;;;;;;6.72;63.39;99748.41;5094633;28;19912;-81
2023/12/26 03:42:22;;;;;;;;;;;;;;;6.74;63.78;99745.63;5112949;28;19994;-81
2023/12/26 03:44:47;;;;;;;;;;;;;;;6.73;63.59;99759.72;5112461;28;19911;-81
2023/12/26 03:47:13;;;;;;;;;;;;;;;6.73;63.56;99757.94;5094026;28;19976;-84
2023/12/26 03:49:39;;;;;;;;;;;;;;;6.75;63.48;99763.03;5094299;28;19920;-84
2023/12/26 03:52:04;;;;;;;;;;;;;;;6.76;63.75;99769.94;5112650;28;19912;-81
2023/12/26 03:54:29;;;;;;;;;;;;;;;6.77;63.51;99776.81;5112716;28;19911;-82
2023/12/26 03:56:55;;;;;;;;;;;;;;;6.74;63.55;99777.94;5112634;28;19911;-81
2023/12/26 03:59:20;;;;;;;;;;;;;;;6.72;63.04;99776.44;5094313;28;20006;-81
2023/12/26 04:01:46;;;;;;;;;;;;;;;6.69;63.31;99783.63;5112549;28;19995;-81
2023/12/26 04:04:12;;;;;;;;;;;;;;;6.68;63.79;99791.63;5094320;28;20018;-81
2023/12/26 04:06:37;;;;;;;;;;;;;;;6.68;63.93;99792.44;5112179;28;20019;-81
2023/12/26 04:09:02;;;;;;;;;;;;;;;6.70;63.92;99797.59;5112428;28;20384;-81
2023/12/26 04:11:30;;;;;;;;;;;;;;;6.71;63.94;99799.22;5112352;28;19912;-83
2023/12/26 04:13:55;;;;;;;;;;;;;;;6.70;63.45;99794.97;5094037;28;19916;-81
2023/12/26 04:16:20;;;;;;;;;;;;;;;6.69;63.02;99795.94;5094150;28;19912;-82
2023/12/26 04:18:45;;;;;;;;;;;;;;;6.67;63.45;99803.91;5094052;28;20358;-81
2023/12/26 04:21:11;;;;;;;;;;;;;;;6.64;63.37;99806.84;5094011;28;19955;-81
2023/12/26 04:23:36;;;;;;;;;;;;;;;6.61;63.54;99804.50;5094119;28;19919;-82
2023/12/26 04:26:01;;;;;;;;;;;;;;;6.58;63.08;99809.22;5094018;28;19912;-83
2023/12/26 04:28:26;;;;;;;;;;;;;;;6.52;63.89;99815.03;5094215;28;19999;-81
2023/12/26 04:30:52;;;;;;;;;;;;;;;6.48;63.80;99825.00;5112333;28;19911;-81
2023/12/26 04:33:17;;;;;;;;;;;;;;;6.49;64.08;99816.16;5112450;28;19912;-81
2023/12/26 04:35:43;;;;;;;;;;;;;;;6.51;63.86;99814.22;5112258;28;19911;-81
2023/12/26 04:38:09;;;;;;;;;;;;;;;6.53;63.61;99819.31;5094141;28;20384;-81
2023/12/26 04:40:34;;;;;;;;;;;;;;;6.49;63.82;99829.28;5112072;28;19919;-81
2023/12/26 04:43:05;;;;;;;;;;;;;;;6.51;63.51;99826.50;5093973;28;19916;-82
2023/12/26 04:45:30;;;;;;;;;;;;;;;6.49;63.12;99829.28;5112192;28;19937;-83
2023/12/26 04:47:56;;;;;;;;;;;;;;;6.46;63.55;99831.38;5093780;28;19916;-81
2023/12/26 04:50:21;;;;;;;;;;;;;;;6.46;63.96;99847.09;5115797;28;20000;-81
2023/12/26 04:52:46;;;;;;;;;;;;;;;6.42;63.48;99845.75;5116011;28;19912;-81
2023/12/26 04:55:12;;;;;;;;;;;;;;;6.38;63.34;99850.44;5115831;28;19981;-81
2023/12/26 04:57:37;;;;;;;;;;;;;;;6.37;64.02;99847.00;5097507;28;19919;-81
2023/12/26 05:00:03;;;;;;;;;;;;;;;6.35;63.34;99848.94;5097494;28;19919;-81
2023/12/26 05:02:28;;;;;;;;;;;;;;;6.37;63.38;99856.66;5097584;28;19977;-80
2023/12/26 05:04:53;;;;;;;;;;;;;;;6.33;63.89;99843.00;5097519;28;20372;-81
2023/12/26 05:07:19;;;;;;;;;;;;;;;6.33;63.60;99845.63;5115342;28;20007;-82
2023/12/26 05:09:44;;;;;;;;;;;;;;;6.35;63.41;99848.94;5097430;28;19919;-81
2023/12/26 05:12:09;;;;;;;;;;;;;;;6.36;63.26;99845.34;5115474;28;20384;-81
2023/12/26 05:14:35;;;;;;;;;;;;;;;6.33;63.81;99856.13;5097235;28;20452;-81
2023/12/26 05:17:00;;;;;;;;;;;;;;;6.28;63.88;99850.47;5115715;28;20022;-81
2023/12/26 05:19:25;;;;;;;;;;;;;;;6.28;63.58;99845.22;5097192;28;20448;-81
2023/12/26 05:21:51;;;;;;;;;;;;;;;6.27;63.16;99851.44;5097424;28;19915;-81
2023/12/26 05:24:16;;;;;;;;;;;;;;;6.21;64.02;99853.81;5115408;28;19923;-81
2023/12/26 05:26:42;;;;;;;;;;;;;;;6.17;63.62;99852.44;5096909;28;19916;-81
2023/12/26 05:29:11;;;;;;;;;;;;;;;6.12;64.68;99852.88;5097484;28;20116;-81
2023/12/26 05:31:37;;;;;;;;;;;;;;;6.16;63.74;99851.63;5115161;28;20297;-81
2023/12/26 05:34:03;;;;;;;;;;;;;;;6.17;63.41;99858.53;5096753;28;20008;-81
2023/12/26 05:36:29;;;;;;;;;;;;;;;6.18;63.73;99857.53;5096764;28;19912;-81
2023/12/26 05:38:54;;;;;;;;;;;;;;;6.17;63.50;99869.00;5115137;28;19912;-81
2023/12/26 05:41:20;;;;;;;;;;;;;;;6.21;63.57;99866.94;5115128;28;19916;-81
2023/12/26 05:43:45;;;;;;;;;;;;;;;6.19;63.53;99869.69;5115000;28;19916;-81
2023/12/26 05:46:10;;;;;;;;;;;;;;;6.21;63.88;99872.16;5115015;28;20007;-82
2023/12/26 05:48:36;;;;;;;;;;;;;;;6.19;63.64;99874.94;5096596;28;19919;-80
2023/12/26 05:51:01;;;;;;;;;;;;;;;6.17;63.25;99868.19;5114954;28;19912;-81
2023/12/26 05:53:29;;;;;;;;;;;;;;;6.12;63.59;99876.47;5115216;28;19923;-81
2023/12/26 05:55:55;;;;;;;;;;;;;;;6.11;63.78;99874.81;5114728;28;19961;-81
2023/12/26 05:58:20;;;;;;;;;;;;;;;6.14;63.44;99881.56;5096626;28;19911;-82
2023/12/26 06:00:45;;;;;;;;;;;;;;;6.13;63.55;99879.91;5096114;28;19987;-81
2023/12/26 06:03:11;;;;;;;;;;;;;;;6.15;63.96;99876.19;5114829;28;19912;-81
2023/12/26 06:05:36;;;;;;;;;;;;;;;6.11;63.27;99885.31;5114599;28;19954;-81
2023/12/26 06:08:01;;;;;;;;;;;;;;;6.08;63.77;99895.25;5114683;28;19916;-82
2023/12/26 06:10:26;;;;;;;;;;;;;;;6.04;63.30;99889.44;5114578;28;19922;-81
2023/12/26 06:12:52;;;;;;;;;;;;;;;6.07;63.02;99897.03;5096141;28;19912;-81
2023/12/26 06:15:17;;;;;;;;;;;;;;;6.05;63.70;99894.56;5114244;28;19957;-82
2023/12/26 06:17:42;;;;;;;;;;;;;;;6.05;63.23;99891.09;5095901;28;19908;-81
2023/12/26 06:20:08;;;;;;;;;;;;;;;6.10;63.84;99891.50;5114141;28;20452;-81
2023/12/26 06:22:33;;;;;;;;;;;;;;;6.10;63.19;99896.75;5096177;28;19912;-80
2023/12/26 06:24:58;;;;;;;;;;;;;;;6.13;63.08;99890.41;5114052;28;19911;-81
2023/12/26 06:27:24;;;;;;;;;;;;;;;6.14;63.33;99890.25;5114151;28;20014;-80
2023/12/26 06:29:49;;;;;;;;;;;;;;;6.17;63.12;99891.78;5095707;28;19911;-81
2023/12/26 06:32:14;;;;;;;;;;;;;;;6.16;63.51;99896.19;5113997;28;19962;-81
2023/12/26 06:34:39;;;;;;;;;;;;;;;6.15;63.37;99886.66;5114073;28;19955;-81
2023/12/26 06:37:05;;;;;;;;;;;;;;;6.19;63.53;99888.03;5114089;28;20324;-83
2023/12/26 06:39:31;;;;;;;;;;;;;;;6.23;63.05;99888.59;5114159;28;19916;-83
2023/12/26 06:41:56;;;;;;;;;;;;;;;6.26;62.81;99888.31;5114421;28;20372;-84
2023/12/26 06:44:21;;;;;;;;;;;;;;;6.31;63.20;99896.56;5095604;28;19962;-81
2023/12/26 06:46:47;;;;;;;;;;;;;;;6.33;62.67;99897.25;5095508;28;20003;-80
2023/12/26 06:49:16;;;;;;;;;;;;;;;6.36;63.04;99897.78;5113810;28;19964;-80
2023/12/26 06:51:41;;;;;;;;;;;;;;;6.41;62.82;99902.63;5095583;28;19912;-80
2023/12/26 06:54:07;;;;;;;;;;;;;;;6.47;62.86;99894.16;5113848;28;20395;-81
2023/12/26 06:56:32;;;;;;;;;;;;;;;6.51;63.29;99895.53;5094961;28;19912;-84
2023/12/26 06:58:58;;;;;;;;;;;;;;;6.57;62.90;99894.13;5095320;28;19911;-81
2023/12/26 07:01:23;;;;;;;;;;;;;;;6.63;63.05;99896.19;5113543;28;19912;-81
2023/12/26 07:03:49;;;;;;;;;;;;;;;6.69;62.67;99900.88;5113448;28;19918;-83
2023/12/26 07:06:14;;;;;;;;;;;;;;;6.73;62.52;99904.88;5113307;28;20308;-81
2023/12/26 07:08:39;;;;;;;;;;;;;;;6.78;62.58;99904.44;5113366;28;19912;-83
2023/12/26 07:11:04;;;;;;;;;;;;;;;6.81;62.60;99899.72;5094530;28;19912;-82
2023/12/26 07:13:30;;;;;;;;;;;;;;;6.89;62.81;99905.06;5113350;28;20312;-83
2023/12/26 07:15:55;;;;;;;;;;;;;;;6.95;62.79;99907.13;5113451;28;19965;-82
2023/12/26 07:18:21;;;;;;;;;;;;;;;6.99;62.13;99905.03;5095072;28;19959;-83
2023/12/26 07:20:46;;;;;;;;;;;;;;;7.04;62.76;99908.03;5094933;28;19978;-83
2023/12/26 07:23:11;;;;;;;;;;;;;;;7.07;61.90;99902.50;5094852;28;19934;-84
2023/12/26 07:25:37;;;;;;;;;;;;;;;7.12;62.17;99902.06;5094813;28;19912;-81
2023/12/26 07:28:03;;;;;;;;;;;;;;;7.18;62.13;99894.41;5113043;28;19959;-82
2023/12/26 07:30:28;;;;;;;;;;;;;;;7.22;62.25;99890.53;5113061;28;19958;-83
2023/12/26 07:32:54;;;;;;;;;;;;;;;7.28;62.67;99887.31;5113074;28;19954;-82
2023/12/26 07:35:19;;;;;;;;;;;;;;;7.34;62.76;99884.06;5094830;28;19917;-81
2023/12/26 07:37:44;;;;;;;;;;;;;;;7.42;62.50;99888.59;5094547;28;19960;-81
2023/12/26 07:40:10;;;;;;;;;;;;;;;7.52;62.35;99894.63;5094827;28;19911;-82
2023/12/26 07:42:35;;;;;;;;;;;;;;;7.61;62.39;99891.09;5094635;28;20024;-82
2023/12/26 07:45:00;;;;;;;;;;;;;;;7.68;62.26;99888.69;5094386;28;19926;-82
2023/12/26 07:47:25;;;;;;;;;;;;;;;7.75;62.38;99891.53;5094084;28;19959;-82
2023/12/26 07:49:51;;;;;;;;;;;;;;;7.81;61.78;99889.13;5112408;28;20308;-82
2023/12/26 07:52:16;;;;;;;;;;;;;;;7.87;61.98;99893.78;5094167;28;19908;-81
2023/12/26 07:54:42;;;;;;;;;;;;;;;7.93;62.73;99894.97;5112394;28;20024;-83
2023/12/26 07:57:07;;;;;;;;;;;;;;;7.99;62.76;99891.72;5112316;28;19907;-82
2023/12/26 07:59:33;;;;;;;;;;;;;;;8.07;62.39;99901.50;5094260;28;19970;-79
2023/12/26 08:01:58;;;;;;;;;;;;;;;8.12;62.44;99893.97;5094229;28;19907;-80
2023/12/26 08:04:23;;;;;;;;;;;;;;;8.19;62.62;99889.78;5094110;28;19912;-80
2023/12/26 08:06:48;;;;;;;;;;;;;;;8.25;62.32;99887.34;5112252;28;20010;-82
2023/12/26 08:09:14;;;;;;;;;;;;;;;8.34;62.26;99887.44;5094097;28;19912;-80
2023/12/26 08:11:39;;;;;;;;;;;;;;;8.41;62.14;99889.28;5112211;28;19958;-81
2023/12/26 08:14:04;;;;;;;;;;;;;;;8.47;62.38;99886.03;5093947;28;20453;-82
2023/12/26 08:16:30;;;;;;;;;;;;;;;8.53;62.30;99887.22;5113108;28;20467;-83
2023/12/26 08:18:57;;;;;;;;;;;;;;;8.61;62.39;99884.63;5113333;28;19912;-82
2023/12/26 08:21:22;;;;;;;;;;;;;;;8.66;62.45;99881.50;5112600;28;19912;-82
2023/12/26 08:23:48;;;;;;;;;;;;;;;8.71;62.53;99877.44;5115493;28;19976;-81
2023/12/26 08:26:13;;;;;;;;;;;;;;;8.77;62.91;99881.22;5116962;28;19972;-82
2023/12/26 08:28:38;;;;;;;;;;;;;;;8.85;62.93;99883.91;5116703;28;19918;-83
2023/12/26 08:31:03;;;;;;;;;;;;;;;8.93;62.76;99883.13;5116217;28;20281;-83
2023/12/26 08:33:31;;;;;;;;;;;;;;;9.00;62.95;99881.50;5117019;28;19940;-83
2023/12/26 08:35:56;;;;;;;;;;;;;;;9.08;63.17;99885.00;5098129;28;20307;-82
2023/12/26 08:38:21;;;;;;;;;;;;;;;9.17;62.99;99884.03;5116235;28;19911;-81
2023/12/26 08:40:47;;;;;;;;;;;;;;;9.24;62.59;99869.22;5116212;28;20396;-81
2023/12/26 08:43:12;;;;;;;;;;;;;;;9.32;63.56;99863.16;5098251;28;19995;-81
2023/12/26 08:45:38;;;;;;;;;;;;;;;9.41;62.67;99861.34;5116292;28;19911;-80
2023/12/26 08:48:03;;;;;;;;;;;;;;;9.52;63.09;99869.78;5116082;28;20376;-81
2023/12/26 08:50:28;;;;;;;;;;;;;;;9.63;63.65;99866.00;5115888;28;19919;-82
2023/12/26 08:52:54;;;;;;;;;;;;;;;9.73;62.96;99863.22;5097566;28;20002;-82
2023/12/26 08:55:19;;;;;;;;;;;;;;;9.84;62.71;99857.63;5115838;28;19919;-82
2023/12/26 08:57:44;;;;;;;;;;;;;;;9.95;63.03;99859.91;5097581;28;19908;-82
2023/12/26 09:00:12;;;;;;;;;;;;;;;10.05;62.78;99865.03;5097526;28;19916;-82
2023/12/26 09:02:37;;;;;;;;;;;;;;;10.14;62.46;99854.28;5115629;28;19961;-82
2023/12/26 09:05:03;;;;;;;;;;;;;;;10.26;63.88;99852.16;5097488;28;19956;-82
2023/12/26 09:07:29;;;;;;;;;;;;;;;10.38;62.73;99848.16;5115520;28;19977;-82
2023/12/26 09:09:55;;;;;;;;;;;;;;;10.50;63.64;99851.28;5097272;28;20427;-80
2023/12/26 09:12:20;;;;;;;;;;;;;;;10.62;64.02;99849.94;5115549;28;19964;-81
2023/12/26 09:14:45;;;;;;;;;;;;;;;10.72;63.44;99839.97;5097287;28;19912;-80
2023/12/26 09:17:11;;;;;;;;;;;;;;;10.79;63.84;99827.72;5097332;28;19938;-82
2023/12/26 09:19:36;;;;;;;;;;;;;;;10.89;63.81;99834.63;5097151;28;20028;-82
2023/12/26 09:22:01;;;;;;;;;;;;;;;11.05;61.85;99829.25;5115650;28;19916;-82
2023/12/26 09:24:27;;;;;;;;;;;;;;;11.22;63.39;99830.00;5097038;28;19924;-82
2023/12/26 09:26:52;;;;;;;;;;;;;;;11.39;64.86;99823.59;5097017;28;19923;-82
2023/12/26 09:29:17;;;;;;;;;;;;;;;11.64;63.15;99826.88;5097146;28;19911;-81
2023/12/26 09:31:42;;;;;;;;;;;;;;;11.83;63.36;99818.47;5115360;28;19919;-82
2023/12/26 09:34:08;;;;;;;;;;;;;;;12.01;62.10;99819.00;5114906;28;19937;-81
2023/12/26 09:36:33;;;;;;;;;;;;;;;12.23;64.29;99819.13;5115244;28;19955;-79
2023/12/26 09:38:58;;;;;;;;;;;;;;;12.39;61.52;99805.69;5115064;28;19911;-80
2023/12/26 09:41:27;;;;;;;;;;;;;;;12.53;62.77;99814.63;5114996;28;19918;-80
2023/12/26 09:43:53;;;;;;;;;;;;;;;12.65;62.36;99802.59;5096556;28;19947;-80
2023/12/26 09:46:19;;;;;;;;;;;;;;;12.81;62.43;99805.03;5096668;28;19921;-80
2023/12/26 09:48:45;;;;;;;;;;;;;;;12.99;65.15;99797.50;5115018;28;19919;-80
2023/12/26 09:51:14;;;;;;;;;;;;;;;13.13;65.33;99793.16;5114861;28;20312;-80
2023/12/26 09:53:42;;;;;;;;;;;;;;;13.22;63.98;99783.28;5093187;28;19912;-79
2023/12/26 09:56:09;;;;;;;;;;;;;;;13.29;63.47;99787.63;5094454;28;19908;-81
2023/12/26 09:58:35;;;;;;;;;;;;;;;13.36;63.26;99782.38;5094504;28;19912;-80
2023/12/26 10:01:02;;;;;;;;;;;;;;;13.44;62.35;99784.13;5094151;28;20495;-79
2023/12/26 10:03:28;;;;;;;;;;;;;;;13.55;62.59;99787.06;5094045;28;19925;-80
2023/12/26 10:05:57;;;;;;;;;;;;;;;13.70;63.35;99781.69;5092476;28;19920;-81
2023/12/26 10:08:22;;;;;;;;;;;;;;;13.82;62.60;99774.84;5092456;28;20328;-80
2023/12/26 10:10:47;;;;;;;;;;;;;;;13.90;62.67;99772.03;5094181;28;19912;-80
2023/12/26 10:13:13;;;;;;;;;;;;;;;14.03;62.81;99770.47;5093996;28;19977;-80
2023/12/26 10:15:41;;;;;;;;;;;;;;;14.07;63.41;99774.38;5094012;28;20377;-80
2023/12/26 10:18:07;;;;;;;;;;;;;;;14.11;62.25;99771.13;5093942;28;19912;-80
2023/12/26 10:20:34;;;;;;;;;;;;;;;14.19;62.35;99768.34;5094035;28;19912;-80
2023/12/26 10:23:01;;;;;;;;;;;;;;;14.24;62.68;99755.31;5093590;28;20377;-80
2023/12/26 10:25:27;;;;;;;;;;;;;;;14.33;62.23;99753.31;5093411;28;19916;-80
2023/12/26 10:27:53;;;;;;;;;;;;;;;14.39;62.39;99755.19;5093573;28;19939;-80
2023/12/26 10:30:18;;;;;;;;;;;;;;;14.45;62.16;99750.94;5093539;28;19961;-80
2023/12/26 10:32:44;;;;;;;;;;;;;;;14.50;62.49;99744.00;5093526;28;19912;-80
2023/12/26 10:35:15;;;;;;;;;;;;;;;14.52;62.77;99734.00;5092267;28;19991;-80
2023/12/26 10:37:41;;;;;;;;;;;;;;;14.58;62.73;99743.84;5092104;28;19998;-80
2023/12/26 10:40:07;;;;;;;;;;;;;;;14.67;61.97;99735.69;5092062;28;20007;-80
2023/12/26 10:42:34;;;;;;;;;;;;;;;14.70;62.17;99727.31;5093772;28;19912;-80
2023/12/26 10:45:04;;;;;;;;;;;;;;;14.75;61.78;99728.34;5092059;28;19912;-79
2023/12/26 10:47:30;;;;;;;;;;;;;;;14.81;61.50;99724.06;5092024;28;20377;-80
2023/12/26 10:49:59;;;;;;;;;;;;;;;14.82;61.55;99723.06;5093494;28;19919;-81
2023/12/26 10:52:25;;;;;;;;;;;;;;;14.82;61.46;99718.56;5092086;28;19919;-80
2023/12/26 10:54:54;;;;;;;;;;;;;;;14.86;61.43;99722.50;5093460;28;19912;-79
2023/12/26 10:57:21;;;;;;;;;;;;;;;14.88;60.86;99722.28;5086529;28;19923;-78
2023/12/26 13:51:28;;;;;;;;;;;;;;;15.38;57.33;99587.06;5074419;28;19970;-79
2023/12/26 13:54:13;;;;;;;;;;;;;;;15.37;57.40;99590.75;5074411;28;20392;-80
2023/12/26 13:56:57;;;;;;;;;;;;;;;15.33;57.75;99587.69;5074241;28;20457;-80
2023/12/26 13:59:41;;;;;;;;;;;;;;;15.31;58.08;99591.56;5074367;28;19970;-80
2023/12/26 14:02:25;;;;;;;;;;;;;;;15.27;57.96;99585.84;5072905;28;19920;-80
2023/12/26 14:05:09;;;;;;;;;;;;;;;15.20;58.41;99601.81;5073819;28;19912;-80
2023/12/26 14:07:57;;;;;;;;;;;;;;;15.18;58.06;99589.75;5073497;28;19920;-80
2023/12/26 14:10:41;;;;;;;;;;;;;;;15.14;58.26;99581.38;5073740;28;19920;-79
2023/12/26 14:13:25;;;;;;;;;;;;;;;15.12;58.26;99580.75;5072599;28;19913;-80
2023/12/26 14:16:08;;;;;;;;;;;;;;;15.09;58.29;99585.66;5073859;28;19913;-78
2023/12/26 14:18:52;;;;;;;;;;;;;;;15.04;58.56;99580.97;5073887;28;20373;-80
2023/12/26 14:21:36;;;;;;;;;;;;;;;15.03;58.54;99582.00;5073524;28;20336;-80
2023/12/26 14:24:20;;;;;;;;;;;;;;;15.00;58.95;99576.28;5073771;28;19912;-80
2023/12/26 14:27:06;;;;;;;;;;;;;;;14.96;59.45;99581.19;5073933;28;19973;-80
2023/12/26 14:29:49;;;;;;;;;;;;;;;14.91;59.98;99573.00;5073992;28;19916;-80
2023/12/26 14:32:33;;;;;;;;;;;;;;;14.84;59.75;99564.19;5073780;28;19973;-80
2023/12/26 14:35:17;;;;;;;;;;;;;;;14.79;60.12;99572.78;5072597;28;20382;-81
2023/12/26 14:38:02;;;;;;;;;;;;;;;14.78;59.35;99563.16;5073993;28;19912;-80
2023/12/26 14:40:46;;;;;;;;;;;;;;;14.73;59.82;99564.78;5072551;28;19924;-81
2023/12/26 14:43:30;;;;;;;;;;;;;;;14.69;60.14;99569.69;5072249;28;19923;-81
2023/12/26 14:46:15;;;;;;;;;;;;;;;14.63;60.44;99578.50;5074239;28;19912;-80
2023/12/26 14:48:59;;;;;;;;;;;;;;;14.57;61.03;99572.16;5074000;28;20392;-80
2023/12/26 14:51:43;;;;;;;;;;;;;;;14.55;60.33;99562.75;5073637;28;19912;-81
2023/12/26 14:54:27;;;;;;;;;;;;;;;14.51;60.50;99567.66;5072103;28;19913;-80
2023/12/26 14:57:11;;;;;;;;;;;;;;;14.52;60.64;99571.94;5071701;28;20310;-81
2023/12/26 14:59:55;;;;;;;;;;;;;;;14.48;61.05;99562.75;5071696;28;20435;-80
2023/12/26 15:02:22;;;;;;;;;;;;;;;14.44;61.98;99563.34;5073231;28;20003;-81
2023/12/26 15:04:47;;;;;;;;;;;;;;;14.39;61.70;99565.75;5071515;28;19913;-81
2023/12/26 15:07:13;;;;;;;;;;;;;;;14.31;62.59;99569.44;5071633;28;20423;-81
2023/12/26 15:09:38;;;;;;;;;;;;;;;14.27;62.10;99570.84;5073115;28;19913;-80
2023/12/26 15:12:03;;;;;;;;;;;;;;;14.23;62.08;99580.22;5072449;28;19912;-80
2023/12/26 15:14:29;;;;;;;;;;;;;;;14.20;62.77;99576.16;5072493;28;20003;-80
2023/12/26 15:16:55;;;;;;;;;;;;;;;14.15;62.14;99580.41;5071218;28;19912;-80
2023/12/26 15:19:20;;;;;;;;;;;;;;;14.08;62.68;99577.72;5072558;28;20359;-80
2023/12/26 15:21:45;;;;;;;;;;;;;;;14.04;62.95;99588.94;5071275;28;19919;-81
2023/12/26 15:24:11;;;;;;;;;;;;;;;14.02;62.13;99585.66;5071002;28;19935;-81
2023/12/26 15:26:37;;;;;;;;;;;;;;;13.99;62.76;99578.91;5072084;28;19924;-80
2023/12/26 15:29:02;;;;;;;;;;;;;;;13.98;62.55;99588.72;5070977;28;19979;-80
2023/12/26 15:31:27;;;;;;;;;;;;;;;13.98;63.19;99585.25;5072453;28;19962;-80
2023/12/26 15:33:52;;;;;;;;;;;;;;;13.97;63.71;99588.91;5071792;28;19912;-80
2023/12/26 15:36:23;;;;;;;;;;;;;;;13.95;63.84;99593.59;5071041;28;19951;-80
2023/12/26 15:38:49;;;;;;;;;;;;;;;13.93;63.04;99592.97;5072291;28;19904;-80
2023/12/26 15:41:16;;;;;;;;;;;;;;;13.91;62.75;99589.69;5072188;28;20409;-80
2023/12/26 15:43:42;;;;;;;;;;;;;;;13.88;63.62;99588.25;5072051;28;19912;-81